sensor_id;sensor_type;location;lat;lon;timestamp;temperature;humidity
58554;DHT22;48119;53.218;6.576;2023-09-12T00:02:08;22.90;99.90
58554;DHT22;48119;53.218;6.576;2023-09-12T00:04:35;22.90;99.90
58554;DHT22;48119;53.218;6.576;2023-09-12T00:07:01;22.90;99.90
58554;DHT22;48119;53.218;6.576;2023-09-12T00:09:27;22.90;99.90
58554;DHT22;48119;53.218;6.576;2023-09-12T00:11:53;22.80;99.90
58554;DHT22;48119;53.218;6.576;2023-09-12T00:14:20;22.90;99.90
58554;DHT22;48119;53.218;6.576;2023-09-12T00:16:46;22.80;99.90
58554;DHT22;48119;53.218;6.576;2023-09-12T00:19:12;22.80;99.90
58554;DHT22;48119;53.218;6.576;2023-09-12T00:21:38;22.80;99.90
58554;DHT22;48119;53.218;6.576;2023-09-12T00:24:04;22.80;99.90
58554;DHT22;48119;53.218;6.576;2023-09-12T00:26:30;22.80;99.90
58554;DHT22;48119;53.218;6.576;2023-09-12T00:28:56;22.80;99.90
58554;DHT22;48119;53.218;6.576;2023-09-12T00:31:22;22.80;99.90
58554;DHT22;48119;53.218;6.576;2023-09-12T00:33:48;22.80;99.90
58554;DHT22;48119;53.218;6.576;2023-09-12T00:36:14;22.80;99.90
58554;DHT22;48119;53.218;6.576;2023-09-12T00:38:39;22.70;99.90
58554;DHT22;48119;53.218;6.576;2023-09-12T00:41:05;22.80;99.90
58554;DHT22;48119;53.218;6.576;2023-09-12T00:43:31;22.70;99.90
58554;DHT22;48119;53.218;6.576;2023-09-12T00:45:57;22.80;99.90
58554;DHT22;48119;53.218;6.576;2023-09-12T00:48:23;22.70;99.90
58554;DHT22;48119;53.218;6.576;2023-09-12T00:50:50;22.70;99.90
58554;DHT22;48119;53.218;6.576;2023-09-12T00:53:17;22.70;99.90
58554;DHT22;48119;53.218;6.576;2023-09-12T00:55:46;22.70;99.90
58554;DHT22;48119;53.218;6.576;2023-09-12T00:58:15;22.70;99.90
58554;DHT22;48119;53.218;6.576;2023-09-12T01:00:41;22.60;99.90
58554;DHT22;48119;53.218;6.576;2023-09-12T01:03:07;22.70;99.90
58554;DHT22;48119;53.218;6.576;2023-09-12T01:05:33;22.60;99.90
58554;DHT22;48119;53.218;6.576;2023-09-12T01:08:00;22.60;99.90
58554;DHT22;48119;53.218;6.576;2023-09-12T01:10:26;22.60;99.90
58554;DHT22;48119;53.218;6.576;2023-09-12T01:12:52;22.60;99.90
58554;DHT22;48119;53.218;6.576;2023-09-12T01:15:18;22.60;99.90
58554;DHT22;48119;53.218;6.576;2023-09-12T01:17:45;22.60;99.90
58554;DHT22;48119;53.218;6.576;2023-09-12T01:20:32;22.50;99.90
58554;DHT22;48119;53.218;6.576;2023-09-12T01:28:45;22.50;99.90
58554;DHT22;48119;53.218;6.576;2023-09-12T01:31:14;22.50;99.90
58554;DHT22;48119;53.218;6.576;2023-09-12T01:33:40;22.50;99.90
58554;DHT22;48119;53.218;6.576;2023-09-12T01:36:08;22.40;99.90
58554;DHT22;48119;53.218;6.576;2023-09-12T01:38:34;22.40;99.90
58554;DHT22;48119;53.218;6.576;2023-09-12T01:41:00;22.40;99.90
58554;DHT22;48119;53.218;6.576;2023-09-12T01:43:27;22.40;99.90
58554;DHT22;48119;53.218;6.576;2023-09-12T01:45:55;22.50;99.90
58554;DHT22;48119;53.218;6.576;2023-09-12T01:48:24;22.40;99.90
58554;DHT22;48119;53.218;6.576;2023-09-12T01:50:52;22.40;99.90
58554;DHT22;48119;53.218;6.576;2023-09-12T01:53:19;22.40;99.90
58554;DHT22;48119;53.218;6.576;2023-09-12T01:55:45;22.40;99.90
58554;DHT22;48119;53.218;6.576;2023-09-12T01:58:12;22.40;99.90
58554;DHT22;48119;53.218;6.576;2023-09-12T02:00:39;22.40;99.90
58554;DHT22;48119;53.218;6.576;2023-09-12T02:03:05;22.40;99.90
58554;DHT22;48119;53.218;6.576;2023-09-12T02:05:31;22.40;99.90
58554;DHT22;48119;53.218;6.576;2023-09-12T02:07:57;22.30;99.90
58554;DHT22;48119;53.218;6.576;2023-09-12T02:10:26;22.40;99.90
58554;DHT22;48119;53.218;6.576;2023-09-12T02:12:51;22.30;99.90
58554;DHT22;48119;53.218;6.576;2023-09-12T02:15:17;22.30;99.90
58554;DHT22;48119;53.218;6.576;2023-09-12T02:17:43;22.30;99.90
58554;DHT22;48119;53.218;6.576;2023-09-12T02:20:09;22.30;99.90
58554;DHT22;48119;53.218;6.576;2023-09-12T02:22:36;22.20;99.90
58554;DHT22;48119;53.218;6.576;2023-09-12T02:25:05;22.20;99.90
58554;DHT22;48119;53.218;6.576;2023-09-12T02:27:31;22.20;99.90
58554;DHT22;48119;53.218;6.576;2023-09-12T02:29:57;22.20;99.90
58554;DHT22;48119;53.218;6.576;2023-09-12T02:32:23;22.20;99.90
58554;DHT22;48119;53.218;6.576;2023-09-12T02:34:49;22.20;99.90
58554;DHT22;48119;53.218;6.576;2023-09-12T02:37:14;22.20;99.90
58554;DHT22;48119;53.218;6.576;2023-09-12T02:39:41;22.20;99.90
58554;DHT22;48119;53.218;6.576;2023-09-12T02:42:07;22.10;99.90
58554;DHT22;48119;53.218;6.576;2023-09-12T02:44:33;22.20;99.90
58554;DHT22;48119;53.218;6.576;2023-09-12T02:46:58;22.10;99.90
58554;DHT22;48119;53.218;6.576;2023-09-12T02:49:24;22.10;99.90
58554;DHT22;48119;53.218;6.576;2023-09-12T02:51:50;22.10;99.90
58554;DHT22;48119;53.218;6.576;2023-09-12T02:54:16;22.10;99.90
58554;DHT22;48119;53.218;6.576;2023-09-12T02:56:41;22.10;99.90
58554;DHT22;48119;53.218;6.576;2023-09-12T02:59:07;22.10;99.90
58554;DHT22;48119;53.218;6.576;2023-09-12T03:01:33;22.10;99.90
58554;DHT22;48119;53.218;6.576;2023-09-12T03:03:58;22.10;99.90
58554;DHT22;48119;53.218;6.576;2023-09-12T03:06:24;22.10;99.90
58554;DHT22;48119;53.218;6.576;2023-09-12T03:08:50;22.00;99.90
58554;DHT22;48119;53.218;6.576;2023-09-12T03:11:16;22.10;99.90
58554;DHT22;48119;53.218;6.576;2023-09-12T03:13:41;22.10;99.90
58554;DHT22;48119;53.218;6.576;2023-09-12T03:16:11;22.10;99.90
58554;DHT22;48119;53.218;6.576;2023-09-12T03:18:37;22.10;99.90
58554;DHT22;48119;53.218;6.576;2023-09-12T03:21:03;22.10;99.90
58554;DHT22;48119;53.218;6.576;2023-09-12T03:23:32;22.10;99.90
58554;DHT22;48119;53.218;6.576;2023-09-12T03:26:05;22.10;99.90
58554;DHT22;48119;53.218;6.576;2023-09-12T03:28:31;22.10;99.90
58554;DHT22;48119;53.218;6.576;2023-09-12T03:31:11;22.10;99.90
58554;DHT22;48119;53.218;6.576;2023-09-12T03:33:38;22.10;99.90
58554;DHT22;48119;53.218;6.576;2023-09-12T03:36:05;22.00;99.90
58554;DHT22;48119;53.218;6.576;2023-09-12T03:38:32;22.00;99.90
58554;DHT22;48119;53.218;6.576;2023-09-12T03:40:57;22.00;99.90
58554;DHT22;48119;53.218;6.576;2023-09-12T03:43:23;22.00;99.90
58554;DHT22;48119;53.218;6.576;2023-09-12T03:45:49;22.00;99.90
58554;DHT22;48119;53.218;6.576;2023-09-12T03:48:15;21.90;99.90
58554;DHT22;48119;53.218;6.576;2023-09-12T03:50:40;21.90;99.90
58554;DHT22;48119;53.218;6.576;2023-09-12T03:53:06;21.90;99.90
58554;DHT22;48119;53.218;6.576;2023-09-12T03:55:32;21.90;99.90
58554;DHT22;48119;53.218;6.576;2023-09-12T03:57:58;21.90;99.90
58554;DHT22;48119;53.218;6.576;2023-09-12T04:00:23;21.90;99.90
58554;DHT22;48119;53.218;6.576;2023-09-12T04:02:49;21.90;99.90
58554;DHT22;48119;53.218;6.576;2023-09-12T04:05:15;21.90;99.90
58554;DHT22;48119;53.218;6.576;2023-09-12T04:07:41;21.90;99.90
58554;DHT22;48119;53.218;6.576;2023-09-12T04:10:07;21.90;99.90
58554;DHT22;48119;53.218;6.576;2023-09-12T04:12:32;21.90;99.90
58554;DHT22;48119;53.218;6.576;2023-09-12T04:14:58;21.90;99.90
58554;DHT22;48119;53.218;6.576;2023-09-12T04:17:24;21.90;99.90
58554;DHT22;48119;53.218;6.576;2023-09-12T04:19:50;21.90;99.90
58554;DHT22;48119;53.218;6.576;2023-09-12T04:22:16;21.90;99.90
58554;DHT22;48119;53.218;6.576;2023-09-12T04:24:42;21.90;99.90
58554;DHT22;48119;53.218;6.576;2023-09-12T04:27:08;21.80;99.90
58554;DHT22;48119;53.218;6.576;2023-09-12T04:29:34;21.80;99.90
58554;DHT22;48119;53.218;6.576;2023-09-12T04:32:06;21.80;99.90
58554;DHT22;48119;53.218;6.576;2023-09-12T04:34:31;21.80;99.90
58554;DHT22;48119;53.218;6.576;2023-09-12T04:36:57;21.70;99.90
58554;DHT22;48119;53.218;6.576;2023-09-12T04:39:23;21.70;99.90
58554;DHT22;48119;53.218;6.576;2023-09-12T04:41:49;21.70;99.90
58554;DHT22;48119;53.218;6.576;2023-09-12T04:44:14;21.70;99.90
58554;DHT22;48119;53.218;6.576;2023-09-12T04:46:40;21.70;99.90
58554;DHT22;48119;53.218;6.576;2023-09-12T04:49:06;21.70;99.90
58554;DHT22;48119;53.218;6.576;2023-09-12T04:51:32;21.70;99.90
58554;DHT22;48119;53.218;6.576;2023-09-12T04:53:57;21.70;99.90
58554;DHT22;48119;53.218;6.576;2023-09-12T04:56:23;21.70;99.90
58554;DHT22;48119;53.218;6.576;2023-09-12T04:58:52;21.70;99.90
58554;DHT22;48119;53.218;6.576;2023-09-12T05:01:18;21.70;99.90
58554;DHT22;48119;53.218;6.576;2023-09-12T05:03:44;21.70;99.90
58554;DHT22;48119;53.218;6.576;2023-09-12T05:06:10;21.70;99.90
58554;DHT22;48119;53.218;6.576;2023-09-12T05:08:36;21.70;99.90
58554;DHT22;48119;53.218;6.576;2023-09-12T05:11:02;21.70;99.90
58554;DHT22;48119;53.218;6.576;2023-09-12T05:13:29;21.60;99.90
58554;DHT22;48119;53.218;6.576;2023-09-12T05:15:54;21.60;99.90
58554;DHT22;48119;53.218;6.576;2023-09-12T05:18:21;21.60;99.90
58554;DHT22;48119;53.218;6.576;2023-09-12T05:20:47;21.60;99.90
58554;DHT22;48119;53.218;6.576;2023-09-12T05:23:13;21.60;99.90
58554;DHT22;48119;53.218;6.576;2023-09-12T05:25:38;21.60;99.90
58554;DHT22;48119;53.218;6.576;2023-09-12T05:28:05;21.50;99.90
58554;DHT22;48119;53.218;6.576;2023-09-12T05:30:30;21.50;99.90
58554;DHT22;48119;53.218;6.576;2023-09-12T05:32:56;21.50;99.90
58554;DHT22;48119;53.218;6.576;2023-09-12T05:35:22;21.50;99.90
58554;DHT22;48119;53.218;6.576;2023-09-12T05:37:48;21.50;99.90
58554;DHT22;48119;53.218;6.576;2023-09-12T05:40:14;21.50;99.90
58554;DHT22;48119;53.218;6.576;2023-09-12T05:42:40;21.50;99.90
58554;DHT22;48119;53.218;6.576;2023-09-12T05:45:06;21.50;99.90
58554;DHT22;48119;53.218;6.576;2023-09-12T05:47:32;21.40;99.90
58554;DHT22;48119;53.218;6.576;2023-09-12T05:49:58;21.40;99.90
58554;DHT22;48119;53.218;6.576;2023-09-12T05:52:25;21.40;99.90
58554;DHT22;48119;53.218;6.576;2023-09-12T05:54:51;21.40;99.90
58554;DHT22;48119;53.218;6.576;2023-09-12T05:57:16;21.30;99.90
58554;DHT22;48119;53.218;6.576;2023-09-12T05:59:45;21.30;99.90
58554;DHT22;48119;53.218;6.576;2023-09-12T06:02:11;21.30;99.90
58554;DHT22;48119;53.218;6.576;2023-09-12T06:04:37;21.30;99.90
58554;DHT22;48119;53.218;6.576;2023-09-12T06:07:03;21.30;99.90
58554;DHT22;48119;53.218;6.576;2023-09-12T06:09:29;21.30;99.90
58554;DHT22;48119;53.218;6.576;2023-09-12T06:11:55;21.30;99.90
58554;DHT22;48119;53.218;6.576;2023-09-12T06:14:21;21.30;99.90
58554;DHT22;48119;53.218;6.576;2023-09-12T06:16:47;21.30;99.90
58554;DHT22;48119;53.218;6.576;2023-09-12T06:19:13;21.30;99.90
58554;DHT22;48119;53.218;6.576;2023-09-12T06:21:43;21.20;99.90
58554;DHT22;48119;53.218;6.576;2023-09-12T06:24:16;21.20;99.90
58554;DHT22;48119;53.218;6.576;2023-09-12T06:26:42;21.20;99.90
58554;DHT22;48119;53.218;6.576;2023-09-12T06:29:08;21.20;99.90
58554;DHT22;48119;53.218;6.576;2023-09-12T06:31:34;21.20;99.90
58554;DHT22;48119;53.218;6.576;2023-09-12T06:34:03;21.20;99.90
58554;DHT22;48119;53.218;6.576;2023-09-12T06:36:29;21.20;99.90
58554;DHT22;48119;53.218;6.576;2023-09-12T06:38:56;21.30;99.90
58554;DHT22;48119;53.218;6.576;2023-09-12T06:41:22;21.30;99.90
58554;DHT22;48119;53.218;6.576;2023-09-12T06:43:47;21.30;99.90
58554;DHT22;48119;53.218;6.576;2023-09-12T06:46:13;21.20;99.90
58554;DHT22;48119;53.218;6.576;2023-09-12T06:48:39;21.20;99.90
58554;DHT22;48119;53.218;6.576;2023-09-12T06:51:07;21.30;99.90
58554;DHT22;48119;53.218;6.576;2023-09-12T06:53:34;21.30;99.90
58554;DHT22;48119;53.218;6.576;2023-09-12T06:55:59;21.30;99.90
58554;DHT22;48119;53.218;6.576;2023-09-12T06:58:25;21.30;99.90
58554;DHT22;48119;53.218;6.576;2023-09-12T07:00:51;21.20;99.90
58554;DHT22;48119;53.218;6.576;2023-09-12T07:03:17;21.20;99.90
58554;DHT22;48119;53.218;6.576;2023-09-12T07:05:43;21.30;99.90
58554;DHT22;48119;53.218;6.576;2023-09-12T07:08:10;21.30;99.90
58554;DHT22;48119;53.218;6.576;2023-09-12T07:10:36;21.30;99.90
58554;DHT22;48119;53.218;6.576;2023-09-12T07:13:02;21.40;99.90
58554;DHT22;48119;53.218;6.576;2023-09-12T07:15:28;21.30;99.90
58554;DHT22;48119;53.218;6.576;2023-09-12T07:17:54;21.40;99.90
58554;DHT22;48119;53.218;6.576;2023-09-12T07:20:21;21.40;99.90
58554;DHT22;48119;53.218;6.576;2023-09-12T07:22:47;21.40;99.90
58554;DHT22;48119;53.218;6.576;2023-09-12T07:25:14;21.40;99.90
58554;DHT22;48119;53.218;6.576;2023-09-12T07:27:39;21.40;99.90
58554;DHT22;48119;53.218;6.576;2023-09-12T07:30:06;21.40;99.90
58554;DHT22;48119;53.218;6.576;2023-09-12T07:32:33;21.30;99.90
58554;DHT22;48119;53.218;6.576;2023-09-12T07:34:59;21.40;99.90
58554;DHT22;48119;53.218;6.576;2023-09-12T07:37:24;21.40;99.90
58554;DHT22;48119;53.218;6.576;2023-09-12T07:39:51;21.40;99.90
58554;DHT22;48119;53.218;6.576;2023-09-12T07:42:21;21.40;99.90
58554;DHT22;48119;53.218;6.576;2023-09-12T07:44:47;21.40;99.90
58554;DHT22;48119;53.218;6.576;2023-09-12T07:47:13;21.40;99.90
58554;DHT22;48119;53.218;6.576;2023-09-12T07:49:40;21.50;99.90
58554;DHT22;48119;53.218;6.576;2023-09-12T07:52:08;21.50;99.90
58554;DHT22;48119;53.218;6.576;2023-09-12T07:54:34;21.50;99.90
58554;DHT22;48119;53.218;6.576;2023-09-12T07:57:00;21.50;99.90
58554;DHT22;48119;53.218;6.576;2023-09-12T07:59:26;21.50;99.90
58554;DHT22;48119;53.218;6.576;2023-09-12T08:01:51;21.60;99.90
58554;DHT22;48119;53.218;6.576;2023-09-12T08:04:17;21.60;99.90
58554;DHT22;48119;53.218;6.576;2023-09-12T08:06:43;21.60;99.90
58554;DHT22;48119;53.218;6.576;2023-09-12T08:09:09;21.60;99.90
58554;DHT22;48119;53.218;6.576;2023-09-12T08:11:38;21.60;99.90
58554;DHT22;48119;53.218;6.576;2023-09-12T08:14:03;21.60;99.90
58554;DHT22;48119;53.218;6.576;2023-09-12T08:16:29;21.60;99.90
58554;DHT22;48119;53.218;6.576;2023-09-12T08:18:56;21.60;99.90
58554;DHT22;48119;53.218;6.576;2023-09-12T08:21:22;21.60;99.90
58554;DHT22;48119;53.218;6.576;2023-09-12T08:23:48;21.70;99.90
58554;DHT22;48119;53.218;6.576;2023-09-12T08:26:13;21.70;99.90
58554;DHT22;48119;53.218;6.576;2023-09-12T08:28:39;21.70;99.90
58554;DHT22;48119;53.218;6.576;2023-09-12T08:31:06;21.70;99.90
58554;DHT22;48119;53.218;6.576;2023-09-12T08:33:32;21.70;99.90
58554;DHT22;48119;53.218;6.576;2023-09-12T08:35:58;21.80;99.90
58554;DHT22;48119;53.218;6.576;2023-09-12T08:38:24;21.80;99.90
58554;DHT22;48119;53.218;6.576;2023-09-12T08:40:50;21.80;99.90
58554;DHT22;48119;53.218;6.576;2023-09-12T08:43:17;21.80;99.90
58554;DHT22;48119;53.218;6.576;2023-09-12T08:45:43;21.80;99.90
58554;DHT22;48119;53.218;6.576;2023-09-12T08:48:11;21.80;99.90
58554;DHT22;48119;53.218;6.576;2023-09-12T08:50:38;21.80;99.90
58554;DHT22;48119;53.218;6.576;2023-09-12T08:53:04;21.90;99.90
58554;DHT22;48119;53.218;6.576;2023-09-12T08:55:31;21.90;99.90
58554;DHT22;48119;53.218;6.576;2023-09-12T08:57:58;21.90;99.90
58554;DHT22;48119;53.218;6.576;2023-09-12T09:00:25;21.90;99.90
58554;DHT22;48119;53.218;6.576;2023-09-12T09:02:52;21.90;99.90
58554;DHT22;48119;53.218;6.576;2023-09-12T09:05:20;22.00;99.90
58554;DHT22;48119;53.218;6.576;2023-09-12T09:07:48;22.00;99.90
58554;DHT22;48119;53.218;6.576;2023-09-12T09:10:16;22.00;99.90
58554;DHT22;48119;53.218;6.576;2023-09-12T09:12:44;21.90;99.90
58554;DHT22;48119;53.218;6.576;2023-09-12T09:15:28;21.90;99.90
58554;DHT22;48119;53.218;6.576;2023-09-12T09:17:56;22.00;99.90
58554;DHT22;48119;53.218;6.576;2023-09-12T09:20:33;22.00;99.90
58554;DHT22;48119;53.218;6.576;2023-09-12T09:23:09;22.00;99.90
58554;DHT22;48119;53.218;6.576;2023-09-12T09:25:40;22.00;99.90
58554;DHT22;48119;53.218;6.576;2023-09-12T09:28:26;22.00;99.90
58554;DHT22;48119;53.218;6.576;2023-09-12T09:30:53;22.00;99.90
58554;DHT22;48119;53.218;6.576;2023-09-12T09:33:20;22.10;99.90
58554;DHT22;48119;53.218;6.576;2023-09-12T09:35:48;22.10;99.90
58554;DHT22;48119;53.218;6.576;2023-09-12T09:38:15;22.10;99.90
58554;DHT22;48119;53.218;6.576;2023-09-12T09:40:44;22.10;99.90
58554;DHT22;48119;53.218;6.576;2023-09-12T09:43:10;22.10;99.90
58554;DHT22;48119;53.218;6.576;2023-09-12T09:45:44;22.10;99.90
58554;DHT22;48119;53.218;6.576;2023-09-12T09:48:23;22.10;99.90
58554;DHT22;48119;53.218;6.576;2023-09-12T09:50:51;22.20;99.90
58554;DHT22;48119;53.218;6.576;2023-09-12T09:53:26;22.20;99.90
58554;DHT22;48119;53.218;6.576;2023-09-12T09:55:52;22.20;99.90
58554;DHT22;48119;53.218;6.576;2023-09-12T09:58:18;22.20;99.90
58554;DHT22;48119;53.218;6.576;2023-09-12T10:00:45;22.20;99.90
58554;DHT22;48119;53.218;6.576;2023-09-12T10:03:14;22.20;99.90
58554;DHT22;48119;53.218;6.576;2023-09-12T10:05:42;22.20;99.90
58554;DHT22;48119;53.218;6.576;2023-09-12T10:08:11;22.20;99.90
58554;DHT22;48119;53.218;6.576;2023-09-12T10:10:42;22.20;99.90
58554;DHT22;48119;53.218;6.576;2023-09-12T10:13:12;22.20;99.90
58554;DHT22;48119;53.218;6.576;2023-09-12T10:15:39;22.30;99.90
58554;DHT22;48119;53.218;6.576;2023-09-12T10:18:09;22.30;99.90
58554;DHT22;48119;53.218;6.576;2023-09-12T10:20:52;22.30;99.90
58554;DHT22;48119;53.218;6.576;2023-09-12T10:23:29;22.30;99.90
58554;DHT22;48119;53.218;6.576;2023-09-12T10:25:56;22.30;99.90
58554;DHT22;48119;53.218;6.576;2023-09-12T10:28:23;22.40;99.90
58554;DHT22;48119;53.218;6.576;2023-09-12T10:30:51;22.40;99.90
58554;DHT22;48119;53.218;6.576;2023-09-12T10:33:18;22.40;99.90
58554;DHT22;48119;53.218;6.576;2023-09-12T10:35:45;22.40;99.90
58554;DHT22;48119;53.218;6.576;2023-09-12T10:38:13;22.50;99.90
58554;DHT22;48119;53.218;6.576;2023-09-12T10:40:42;22.50;99.90
58554;DHT22;48119;53.218;6.576;2023-09-12T10:43:09;22.40;99.90
58554;DHT22;48119;53.218;6.576;2023-09-12T10:45:36;22.50;99.90
58554;DHT22;48119;53.218;6.576;2023-09-12T10:48:05;22.50;99.90
58554;DHT22;48119;53.218;6.576;2023-09-12T10:50:30;22.50;99.90
58554;DHT22;48119;53.218;6.576;2023-09-12T10:53:09;22.60;99.90
58554;DHT22;48119;53.218;6.576;2023-09-12T10:55:35;22.60;99.90
58554;DHT22;48119;53.218;6.576;2023-09-12T10:58:09;22.60;99.90
58554;DHT22;48119;53.218;6.576;2023-09-12T11:00:36;22.60;99.90
58554;DHT22;48119;53.218;6.576;2023-09-12T11:05:55;22.70;99.90
58554;DHT22;48119;53.218;6.576;2023-09-12T11:08:22;22.70;99.90
58554;DHT22;48119;53.218;6.576;2023-09-12T11:11:18;22.70;99.90
58554;DHT22;48119;53.218;6.576;2023-09-12T11:13:47;22.70;99.90
58554;DHT22;48119;53.218;6.576;2023-09-12T11:16:14;22.80;99.90
58554;DHT22;48119;53.218;6.576;2023-09-12T11:19:14;22.80;99.90
58554;DHT22;48119;53.218;6.576;2023-09-12T11:21:44;22.80;99.90
58554;DHT22;48119;53.218;6.576;2023-09-12T11:24:12;22.80;99.90
58554;DHT22;48119;53.218;6.576;2023-09-12T11:26:58;22.80;99.90
58554;DHT22;48119;53.218;6.576;2023-09-12T11:29:29;22.80;99.90
58554;DHT22;48119;53.218;6.576;2023-09-12T11:31:57;22.80;99.90
58554;DHT22;48119;53.218;6.576;2023-09-12T11:34:28;22.80;99.90
58554;DHT22;48119;53.218;6.576;2023-09-12T11:36:58;22.80;99.90
58554;DHT22;48119;53.218;6.576;2023-09-12T11:39:33;22.80;99.90
58554;DHT22;48119;53.218;6.576;2023-09-12T11:42:01;22.90;99.90
58554;DHT22;48119;53.218;6.576;2023-09-12T11:44:28;22.90;99.90
58554;DHT22;48119;53.218;6.576;2023-09-12T11:46:56;22.90;99.90
58554;DHT22;48119;53.218;6.576;2023-09-12T11:49:35;22.90;99.90
58554;DHT22;48119;53.218;6.576;2023-09-12T11:52:01;22.90;99.90
58554;DHT22;48119;53.218;6.576;2023-09-12T11:54:29;23.00;99.90
58554;DHT22;48119;53.218;6.576;2023-09-12T11:56:58;23.00;99.90
58554;DHT22;48119;53.218;6.576;2023-09-12T11:59:26;23.00;99.90
58554;DHT22;48119;53.218;6.576;2023-09-12T12:01:52;23.00;99.90
58554;DHT22;48119;53.218;6.576;2023-09-12T12:04:25;23.00;99.90
58554;DHT22;48119;53.218;6.576;2023-09-12T12:06:52;23.10;99.90
58554;DHT22;48119;53.218;6.576;2023-09-12T12:09:18;23.10;99.90
58554;DHT22;48119;53.218;6.576;2023-09-12T12:11:45;23.10;99.90
58554;DHT22;48119;53.218;6.576;2023-09-12T12:14:18;23.10;99.90
58554;DHT22;48119;53.218;6.576;2023-09-12T12:16:48;23.10;99.90
58554;DHT22;48119;53.218;6.576;2023-09-12T12:19:14;23.10;99.90
58554;DHT22;48119;53.218;6.576;2023-09-12T12:21:41;23.10;99.90
58554;DHT22;48119;53.218;6.576;2023-09-12T12:24:11;23.10;99.90
58554;DHT22;48119;53.218;6.576;2023-09-12T12:26:41;23.10;99.90
58554;DHT22;48119;53.218;6.576;2023-09-12T12:29:11;23.10;99.90
58554;DHT22;48119;53.218;6.576;2023-09-12T12:31:39;23.10;99.90
58554;DHT22;48119;53.218;6.576;2023-09-12T12:34:05;23.20;99.90
58554;DHT22;48119;53.218;6.576;2023-09-12T12:36:31;23.20;99.90
58554;DHT22;48119;53.218;6.576;2023-09-12T12:38:59;23.20;99.90
58554;DHT22;48119;53.218;6.576;2023-09-12T12:41:26;23.20;99.90
58554;DHT22;48119;53.218;6.576;2023-09-12T12:43:53;23.20;99.90
58554;DHT22;48119;53.218;6.576;2023-09-12T12:46:24;23.20;99.90
58554;DHT22;48119;53.218;6.576;2023-09-12T12:48:50;23.20;99.90
58554;DHT22;48119;53.218;6.576;2023-09-12T12:51:26;23.20;99.90
58554;DHT22;48119;53.218;6.576;2023-09-12T12:53:55;23.20;99.90
58554;DHT22;48119;53.218;6.576;2023-09-12T12:56:27;23.10;99.90
58554;DHT22;48119;53.218;6.576;2023-09-12T12:58:58;23.10;99.90
58554;DHT22;48119;53.218;6.576;2023-09-12T13:01:25;23.00;99.90
58554;DHT22;48119;53.218;6.576;2023-09-12T13:03:51;23.00;99.90
58554;DHT22;48119;53.218;6.576;2023-09-12T13:06:19;22.90;99.90
58554;DHT22;48119;53.218;6.576;2023-09-12T13:08:46;22.90;99.90
58554;DHT22;48119;53.218;6.576;2023-09-12T13:11:13;22.90;99.90
58554;DHT22;48119;53.218;6.576;2023-09-12T13:13:40;22.90;99.90
58554;DHT22;48119;53.218;6.576;2023-09-12T13:16:08;22.80;99.90
58554;DHT22;48119;53.218;6.576;2023-09-12T13:18:37;22.80;99.90
58554;DHT22;48119;53.218;6.576;2023-09-12T13:21:04;22.80;99.90
58554;DHT22;48119;53.218;6.576;2023-09-12T13:23:30;22.80;99.90
58554;DHT22;48119;53.218;6.576;2023-09-12T13:25:57;22.80;99.90
58554;DHT22;48119;53.218;6.576;2023-09-12T13:28:23;22.80;99.90
58554;DHT22;48119;53.218;6.576;2023-09-12T13:30:52;22.80;99.90
58554;DHT22;48119;53.218;6.576;2023-09-12T13:33:18;22.80;99.90
58554;DHT22;48119;53.218;6.576;2023-09-12T13:35:43;22.80;99.90
58554;DHT22;48119;53.218;6.576;2023-09-12T13:38:09;22.90;99.90
58554;DHT22;48119;53.218;6.576;2023-09-12T13:40:39;22.90;99.90
58554;DHT22;48119;53.218;6.576;2023-09-12T13:43:06;22.90;99.90
58554;DHT22;48119;53.218;6.576;2023-09-12T13:45:32;22.90;99.90
58554;DHT22;48119;53.218;6.576;2023-09-12T13:47:59;22.90;99.90
58554;DHT22;48119;53.218;6.576;2023-09-12T13:50:26;22.90;99.90
58554;DHT22;48119;53.218;6.576;2023-09-12T13:52:58;22.90;99.90
58554;DHT22;48119;53.218;6.576;2023-09-12T13:55:38;22.90;99.90
58554;DHT22;48119;53.218;6.576;2023-09-12T13:58:05;22.90;99.90
58554;DHT22;48119;53.218;6.576;2023-09-12T14:00:31;22.90;99.90
58554;DHT22;48119;53.218;6.576;2023-09-12T14:03:01;22.90;99.90
58554;DHT22;48119;53.218;6.576;2023-09-12T14:05:27;22.90;99.90
58554;DHT22;48119;53.218;6.576;2023-09-12T14:07:52;22.90;99.90
58554;DHT22;48119;53.218;6.576;2023-09-12T14:10:18;22.90;99.90
58554;DHT22;48119;53.218;6.576;2023-09-12T14:12:44;23.00;99.90
58554;DHT22;48119;53.218;6.576;2023-09-12T14:15:16;23.00;99.90
58554;DHT22;48119;53.218;6.576;2023-09-12T14:17:45;23.00;99.90
58554;DHT22;48119;53.218;6.576;2023-09-12T14:20:11;23.00;99.90
58554;DHT22;48119;53.218;6.576;2023-09-12T14:22:42;23.00;99.90
58554;DHT22;48119;53.218;6.576;2023-09-12T14:25:14;23.00;99.90
58554;DHT22;48119;53.218;6.576;2023-09-12T14:27:46;22.90;99.90
58554;DHT22;48119;53.218;6.576;2023-09-12T14:30:12;23.00;99.90
58554;DHT22;48119;53.218;6.576;2023-09-12T14:32:51;23.00;99.90
58554;DHT22;48119;53.218;6.576;2023-09-12T14:35:17;22.90;99.90
58554;DHT22;48119;53.218;6.576;2023-09-12T14:37:43;22.90;99.90
58554;DHT22;48119;53.218;6.576;2023-09-12T14:40:09;22.90;99.90
58554;DHT22;48119;53.218;6.576;2023-09-12T14:42:36;22.90;99.90
58554;DHT22;48119;53.218;6.576;2023-09-12T14:45:02;22.90;99.90
58554;DHT22;48119;53.218;6.576;2023-09-12T14:47:28;22.90;99.90
58554;DHT22;48119;53.218;6.576;2023-09-12T14:49:59;22.90;99.90
58554;DHT22;48119;53.218;6.576;2023-09-12T14:52:24;22.90;99.90
58554;DHT22;48119;53.218;6.576;2023-09-12T14:54:52;22.90;99.90
58554;DHT22;48119;53.218;6.576;2023-09-12T14:57:18;22.90;99.90
58554;DHT22;48119;53.218;6.576;2023-09-12T14:59:45;22.90;99.90
58554;DHT22;48119;53.218;6.576;2023-09-12T15:02:11;22.90;99.90
58554;DHT22;48119;53.218;6.576;2023-09-12T15:04:37;22.90;99.90
58554;DHT22;48119;53.218;6.576;2023-09-12T15:07:03;22.90;99.90
58554;DHT22;48119;53.218;6.576;2023-09-12T15:09:29;22.90;99.90
58554;DHT22;48119;53.218;6.576;2023-09-12T15:11:54;22.90;99.90
58554;DHT22;48119;53.218;6.576;2023-09-12T15:14:21;22.90;99.90
58554;DHT22;48119;53.218;6.576;2023-09-12T15:16:48;22.90;99.90
58554;DHT22;48119;53.218;6.576;2023-09-12T15:19:15;22.90;99.90
58554;DHT22;48119;53.218;6.576;2023-09-12T15:21:41;22.90;99.90
58554;DHT22;48119;53.218;6.576;2023-09-12T15:24:07;22.90;99.90
58554;DHT22;48119;53.218;6.576;2023-09-12T15:26:33;22.90;99.90
58554;DHT22;48119;53.218;6.576;2023-09-12T15:28:58;22.90;99.90
58554;DHT22;48119;53.218;6.576;2023-09-12T15:31:25;22.90;99.90
58554;DHT22;48119;53.218;6.576;2023-09-12T15:33:51;22.90;99.90
58554;DHT22;48119;53.218;6.576;2023-09-12T15:36:17;22.90;99.90
58554;DHT22;48119;53.218;6.576;2023-09-12T15:38:42;22.90;99.90
58554;DHT22;48119;53.218;6.576;2023-09-12T15:41:08;22.90;99.90